Аэропорт: Могилёв. Могилёв

ICAO: UMOO

METAR:
2019/03/24 14:00
UMOO 241400Z 32008G11MPS 9999 SCT020 BKN/// 10/00 Q1012 NOSIG
METAR:
2016/01/23 06:00
TAF UMOO 230500Z 2306/2315 28005MPS 4000 -SN BR OVC008 
      TEMPO 2306/2315 1200 SN BR BKN005